Time;durP1;ratioP1;P1;durP2;ratioP2;P2;SDS_P1;SDS_P2;PMS_P1;PMS_P2;Temp;Humidity;BMP_temperature;BMP_pressure;BME280_temperature;BME280_humidity;BME280_pressure;Samples;Min_cycle;Max_cycle;Signal;HPM_P1;HPM_P2
2022/11/14 00:01:44;;;;;;;17.2;12;;;;;;;;;;;;;
2022/11/14 00:04:15;;;;;;;23.6;15.7;;;;;;;;;;;;;
2022/11/14 00:06:46;;;;;;;23.3;15.5;;;;;;;;;;;;;
2022/11/14 00:09:21;;;;;;;17.6;12.5;;;;;;;;;;;;;
2022/11/14 00:11:46;;;;;;;17;12.5;;;;;;;;;;;;;
2022/11/14 00:14:14;;;;;;;14.4;10.3;;;;;;;;;;;;;
2022/11/14 00:16:40;;;;;;;12.3;9.6;;;;;;;;;;;;;
2022/11/14 00:19:06;;;;;;;13.1;8.7;;;;;;;;;;;;;
2022/11/14 00:21:35;;;;;;;9.4;7.8;;;;;;;;;;;;;
2022/11/14 00:24:05;;;;;;;7.3;6.6;;;;;;;;;;;;;
2022/11/14 00:26:35;;;;;;;9.2;6.9;;;;;;;;;;;;;
2022/11/14 00:29:02;;;;;;;7.3;6.4;;;;;;;;;;;;;
2022/11/14 00:31:27;;;;;;;8.1;6.4;;;;;;;;;;;;;
2022/11/14 00:33:53;;;;;;;8.4;6.4;;;;;;;;;;;;;
2022/11/14 00:36:18;;;;;;;10.2;6.9;;;;;;;;;;;;;
2022/11/14 00:38:47;;;;;;;8.5;5.8;;;;;;;;;;;;;
2022/11/14 00:41:12;;;;;;;7.2;5.8;;;;;;;;;;;;;
2022/11/14 00:43:38;;;;;;;7.4;6.2;;;;;;;;;;;;;
2022/11/14 00:46:03;;;;;;;9.2;7.1;;;;;;;;;;;;;
2022/11/14 00:48:29;;;;;;;8.2;6.1;;;;;;;;;;;;;
2022/11/14 00:50:54;;;;;;;7.5;6;;;;;;;;;;;;;
2022/11/14 00:53:20;;;;;;;8.4;6;;;;;;;;;;;;;
2022/11/14 00:58:10;;;;;;;6.2;5.6;;;;;;;;;;;;;
2022/11/14 01:00:35;;;;;;;6.7;5.5;;;;;;;;;;;;;
2022/11/14 01:03:01;;;;;;;6.6;5.2;;;;;;;;;;;;;
2022/11/14 01:05:27;;;;;;;7;4.8;;;;;;;;;;;;;
2022/11/14 01:07:52;;;;;;;7;4.9;;;;;;;;;;;;;
2022/11/14 01:10:17;;;;;;;6.6;4.5;;;;;;;;;;;;;
2022/11/14 01:12:43;;;;;;;5.2;4.5;;;;;;;;;;;;;
2022/11/14 01:15:08;;;;;;;5.1;4.1;;;;;;;;;;;;;
2022/11/14 01:17:34;;;;;;;5.5;4;;;;;;;;;;;;;
2022/11/14 01:19:59;;;;;;;4.5;3.7;;;;;;;;;;;;;
2022/11/14 01:22:25;;;;;;;4.1;3.7;;;;;;;;;;;;;
2022/11/14 01:24:50;;;;;;;3.7;3.3;;;;;;;;;;;;;
2022/11/14 01:27:16;;;;;;;3.1;2.8;;;;;;;;;;;;;
2022/11/14 01:29:41;;;;;;;4.1;3.1;;;;;;;;;;;;;
2022/11/14 01:32:07;;;;;;;4.5;3.2;;;;;;;;;;;;;
2022/11/14 01:34:32;;;;;;;5.3;4;;;;;;;;;;;;;
2022/11/14 01:36:58;;;;;;;3.6;3.1;;;;;;;;;;;;;
2022/11/14 01:39:23;;;;;;;3.7;3.1;;;;;;;;;;;;;
2022/11/14 01:41:50;;;;;;;3.4;3;;;;;;;;;;;;;
2022/11/14 01:44:15;;;;;;;3.2;2.9;;;;;;;;;;;;;
2022/11/14 01:46:40;;;;;;;4.4;3.1;;;;;;;;;;;;;
2022/11/14 01:49:05;;;;;;;4.6;3.2;;;;;;;;;;;;;
2022/11/14 01:51:30;;;;;;;3.5;2.9;;;;;;;;;;;;;
2022/11/14 01:53:56;;;;;;;5.1;3.1;;;;;;;;;;;;;
2022/11/14 01:56:21;;;;;;;3.3;2.8;;;;;;;;;;;;;
2022/11/14 01:58:46;;;;;;;3.3;2.7;;;;;;;;;;;;;
2022/11/14 02:01:11;;;;;;;2.5;2.3;;;;;;;;;;;;;
2022/11/14 02:03:38;;;;;;;2.5;2.2;;;;;;;;;;;;;
2022/11/14 02:06:03;;;;;;;7.4;5;;;;;;;;;;;;;
2022/11/14 02:08:28;;;;;;;4.7;3.3;;;;;;;;;;;;;
2022/11/14 02:10:53;;;;;;;3.4;2.3;;;;;;;;;;;;;
2022/11/14 02:13:20;;;;;;;3.2;2.1;;;;;;;;;;;;;
2022/11/14 02:15:45;;;;;;;3.2;2.4;;;;;;;;;;;;;
2022/11/14 02:18:11;;;;;;;2.4;1.9;;;;;;;;;;;;;
2022/11/14 02:20:35;;;;;;;2.1;1.8;;;;;;;;;;;;;
2022/11/14 02:23:01;;;;;;;2.2;1.9;;;;;;;;;;;;;
2022/11/14 02:25:26;;;;;;;2.5;2;;;;;;;;;;;;;
2022/11/14 02:27:52;;;;;;;1.6;1.5;;;;;;;;;;;;;
2022/11/14 02:30:17;;;;;;;1.7;1.6;;;;;;;;;;;;;
2022/11/14 02:33:01;;;;;;;2.1;1.9;;;;;;;;;;;;;
2022/11/14 02:35:26;;;;;;;2.1;1.9;;;;;;;;;;;;;
2022/11/14 02:37:51;;;;;;;2.5;2.1;;;;;;;;;;;;;
2022/11/14 02:40:20;;;;;;;2.2;1.6;;;;;;;;;;;;;
2022/11/14 02:42:46;;;;;;;2.2;1.8;;;;;;;;;;;;;
2022/11/14 02:45:13;;;;;;;2.1;1.7;;;;;;;;;;;;;
2022/11/14 02:47:38;;;;;;;2.1;1.9;;;;;;;;;;;;;
2022/11/14 02:50:04;;;;;;;1.9;1.7;;;;;;;;;;;;;
2022/11/14 02:52:30;;;;;;;2.8;1.9;;;;;;;;;;;;;
2022/11/14 02:55:11;;;;;;;2.2;1.8;;;;;;;;;;;;;
2022/11/14 02:57:36;;;;;;;1.7;1.6;;;;;;;;;;;;;
2022/11/14 03:00:03;;;;;;;2.2;1.9;;;;;;;;;;;;;
2022/11/14 03:02:29;;;;;;;2.2;1.7;;;;;;;;;;;;;
2022/11/14 03:04:56;;;;;;;1.9;1.7;;;;;;;;;;;;;
2022/11/14 03:07:21;;;;;;;2.1;1.9;;;;;;;;;;;;;
2022/11/14 03:09:48;;;;;;;2.4;1.8;;;;;;;;;;;;;
2022/11/14 03:12:13;;;;;;;2;1.6;;;;;;;;;;;;;
2022/11/14 03:14:40;;;;;;;2.1;1.8;;;;;;;;;;;;;
2022/11/14 03:17:05;;;;;;;2.4;1.9;;;;;;;;;;;;;
2022/11/14 03:19:31;;;;;;;2.3;1.9;;;;;;;;;;;;;
2022/11/14 03:21:56;;;;;;;3.8;2.2;;;;;;;;;;;;;
2022/11/14 03:24:22;;;;;;;2.3;2.1;;;;;;;;;;;;;
2022/11/14 03:26:47;;;;;;;2.6;2.2;;;;;;;;;;;;;
2022/11/14 03:29:14;;;;;;;2.1;1.9;;;;;;;;;;;;;
2022/11/14 03:31:39;;;;;;;2.3;1.9;;;;;;;;;;;;;
2022/11/14 03:34:06;;;;;;;3.1;1.9;;;;;;;;;;;;;
2022/11/14 03:36:31;;;;;;;2.6;2.1;;;;;;;;;;;;;
2022/11/14 03:39:00;;;;;;;2.4;2.1;;;;;;;;;;;;;
2022/11/14 03:41:25;;;;;;;3.1;2.1;;;;;;;;;;;;;
2022/11/14 03:43:51;;;;;;;2.4;2.2;;;;;;;;;;;;;
2022/11/14 03:46:16;;;;;;;2.8;2.4;;;;;;;;;;;;;
2022/11/14 03:48:43;;;;;;;2.9;2;;;;;;;;;;;;;
2022/11/14 03:51:08;;;;;;;3.5;2.5;;;;;;;;;;;;;
2022/11/14 03:53:33;;;;;;;2.9;2.5;;;;;;;;;;;;;
2022/11/14 03:55:59;;;;;;;3.3;2.1;;;;;;;;;;;;;
2022/11/14 03:58:24;;;;;;;3.8;2.5;;;;;;;;;;;;;
2022/11/14 04:02:34;;;;;;;5.9;2.5;;;;;;;5.75;89.90039;936.5968;;;;
2022/11/14 04:05:04;;;;;;;2.7;2.1;;;;;;;5.8;89.74023;936.6344;;;;
2022/11/14 04:07:29;;;;;;;3.6;2.3;;;;;;;5.86;89.34766;936.5966;;;;
2022/11/14 04:09:57;;;;;;;3.8;2.4;;;;;;;5.81;89.38281;936.4667;;;;
2022/11/14 04:12:22;;;;;;;4.9;3.1;;;;;;;5.76;89.62207;936.4897;;;;
2022/11/14 04:14:51;;;;;;;3.5;2.7;;;;;;;5.79;89.57129;936.4991;;;;
2022/11/14 04:17:16;;;;;;;3.5;2.8;;;;;;;5.83;89.19336;936.531;;;;
2022/11/14 04:19:46;;;;;;;3.2;2.4;;;;;;;5.8;89.9668;936.4622;;;;
2022/11/14 04:22:11;;;;;;;3.1;2.2;;;;;;;5.85;90.35059;936.4581;;;;
2022/11/14 04:24:36;;;;;;;3.3;2.4;;;;;;;5.84;90.37109;936.4785;;;;
2022/11/14 04:27:04;;;;;;;4.3;2.4;;;;;;;5.74;90.63281;936.459;;;;
2022/11/14 04:29:29;;;;;;;4;2.6;;;;;;;5.65;90.94043;936.3859;;;;
2022/11/14 04:32:01;;;;;;;4.8;2.8;;;;;;;5.59;91.09863;936.4252;;;;
2022/11/14 04:36:57;;;;;;;4.3;2.8;;;;;;;5.74;90.46484;936.3304;;;;
2022/11/14 04:39:22;;;;;;;4.9;3.2;;;;;;;5.77;90.16406;936.4551;;;;
2022/11/14 04:41:51;;;;;;;2.8;2;;;;;;;5.59;91.0293;936.5545;;;;
2022/11/14 04:44:21;;;;;;;3.7;2.6;;;;;;;5.71;90.56836;936.4891;;;;
2022/11/14 04:46:46;;;;;;;4.3;3.2;;;;;;;5.78;90.43652;936.4639;;;;
2022/11/14 04:49:17;;;;;;;4.8;3;;;;;;;5.82;90.38965;936.5544;;;;
2022/11/14 04:51:45;;;;;;;4.4;3;;;;;;;5.84;90.02148;936.5068;;;;
2022/11/14 04:54:10;;;;;;;6.5;3.2;;;;;;;5.79;90.19238;936.5505;;;;
2022/11/14 04:56:35;;;;;;;5.3;4.2;;;;;;;5.84;89.87402;936.525;;;;
2022/11/14 04:59:05;;;;;;;4;3.2;;;;;;;5.79;90.19238;936.5115;;;;
2022/11/14 05:01:30;;;;;;;3.5;2.8;;;;;;;5.68;90.4502;936.6227;;;;
2022/11/14 05:03:58;;;;;;;4.1;3.3;;;;;;;5.64;90.97266;936.4465;;;;
2022/11/14 05:06:23;;;;;;;3.9;3.1;;;;;;;5.59;91.14355;936.4899;;;;
2022/11/14 05:08:49;;;;;;;3.2;2.8;;;;;;;5.43;91.77441;936.5711;;;;
2022/11/14 05:11:14;;;;;;;3.3;2.8;;;;;;;5.37;92.44727;936.48;;;;
2022/11/14 05:13:40;;;;;;;3.7;2.8;;;;;;;5.43;92.22656;936.4448;;;;
2022/11/14 05:16:06;;;;;;;2.7;2.5;;;;;;;5.3;92.54883;936.5186;;;;
2022/11/14 05:18:31;;;;;;;5;3.4;;;;;;;5.25;93.34863;936.6127;;;;
2022/11/14 05:21:01;;;;;;;5.1;3.6;;;;;;;5.3;92.89648;936.6116;;;;
2022/11/14 05:23:31;;;;;;;3.8;3.2;;;;;;;5.33;92.71191;936.5834;;;;
2022/11/14 05:25:56;;;;;;;5;3;;;;;;;5.42;92.20117;936.6247;;;;
2022/11/14 05:28:25;;;;;;;4;3.3;;;;;;;5.39;92.27246;936.5989;;;;
2022/11/14 05:30:54;;;;;;;5.6;3.2;;;;;;;5.45;91.7334;936.623;;;;
2022/11/14 05:33:19;;;;;;;4.8;3.6;;;;;;;5.37;91.62402;936.6331;;;;
2022/11/14 05:35:47;;;;;;;4.6;3;;;;;;;5.36;91.77051;936.6772;;;;
2022/11/14 05:38:12;;;;;;;4;3;;;;;;;5.32;91.18555;936.6753;;;;
2022/11/14 05:40:41;;;;;;;4.6;3.1;;;;;;;5.21;91.89551;936.6795;;;;
2022/11/14 05:43:11;;;;;;;5.7;3.8;;;;;;;5.24;91.81348;936.7247;;;;
2022/11/14 05:45:36;;;;;;;4.5;3;;;;;;;5.27;91.75293;936.6859;;;;
2022/11/14 05:48:03;;;;;;;5.5;3.4;;;;;;;5.3;91.60059;936.7989;;;;
2022/11/14 05:50:28;;;;;;;4.8;3.3;;;;;;;5.24;91.51758;936.82;;;;
2022/11/14 05:52:53;;;;;;;5.4;3.3;;;;;;;4.93;93.22168;936.8513;;;;
2022/11/14 05:55:21;;;;;;;6.4;3.2;;;;;;;4.94;93.54102;936.8318;;;;
2022/11/14 05:57:48;;;;;;;6.1;3.3;;;;;;;4.85;93.39746;936.73;;;;
2022/11/14 06:00:13;;;;;;;3.4;2.6;;;;;;;4.9;93.31934;936.8441;;;;
2022/11/14 06:02:39;;;;;;;3.2;2.5;;;;;;;5;92.78809;936.9724;;;;
2022/11/14 06:05:05;;;;;;;4.3;2.9;;;;;;;5.09;92.25195;936.9426;;;;
2022/11/14 06:07:32;;;;;;;4.2;3.2;;;;;;;5.14;92.30859;936.9977;;;;
2022/11/14 06:09:57;;;;;;;8.3;3.6;;;;;;;5.09;92.21777;936.9695;;;;
2022/11/14 06:12:25;;;;;;;9.7;5.6;;;;;;;5.02;92.85742;936.9819;;;;
2022/11/14 06:14:50;;;;;;;8.6;4.5;;;;;;;5;92.87891;937.0427;;;;
2022/11/14 06:17:18;;;;;;;9.4;5.3;;;;;;;4.96;92.96777;937.0311;;;;
2022/11/14 06:19:43;;;;;;;10.9;5.7;;;;;;;5.05;92.68555;937.0869;;;;
2022/11/14 06:22:08;;;;;;;12;6.9;;;;;;;5.13;91.49609;937.0559;;;;
2022/11/14 06:24:36;;;;;;;10.5;7.5;;;;;;;5.2;90.31445;937.0767;;;;
2022/11/14 06:27:02;;;;;;;9.3;6.2;;;;;;;5.08;91.16895;937.1404;;;;
2022/11/14 06:30:49;;;;;;;6.9;5;;;;;;;5.06;91.58105;937.2037;;;;
2022/11/14 06:33:07;;;;;;;10.7;6.3;;;;;;;5.06;91.75;937.1359;;;;
2022/11/14 06:35:36;;;;;;;8.1;6.1;;;;;;;5.16;91.45703;937.1522;;;;
2022/11/14 06:38:05;;;;;;;6.2;4.4;;;;;;;5.15;90.92383;937.2205;;;;
2022/11/14 06:40:35;;;;;;;8.5;5.1;;;;;;;5.06;91.53516;937.2495;;;;
2022/11/14 06:46:25;;;;;;;8.4;4;;;;;;;5.22;91.49316;937.1203;;;;
2022/11/14 06:48:56;;;;;;;6.8;4.1;;;;;;;5.22;91.28809;937.1161;;;;
2022/11/14 06:51:26;;;;;;;5.5;3.7;;;;;;;5.38;90.32129;937.0717;;;;
2022/11/14 06:53:56;;;;;;;7.3;4.3;;;;;;;5.4;90.4248;937.0145;;;;
2022/11/14 06:56:23;;;;;;;5.1;3.8;;;;;;;5.5;89.72363;936.9432;;;;
2022/11/14 06:58:48;;;;;;;6.2;4.3;;;;;;;5.48;88.84082;936.9144;;;;
2022/11/14 07:01:17;;;;;;;7.5;4.8;;;;;;;5.5;88.78809;937.0184;;;;
2022/11/14 07:03:42;;;;;;;7;4.9;;;;;;;5.43;88.7627;936.9698;;;;
2022/11/14 07:10:18;;;;;;;6.9;5.4;;;;;;;5.91;88.77148;936.9664;;;;
2022/11/14 07:12:43;;;;;;;8.2;5.5;;;;;;;6.42;86.25391;936.9484;;;;
2022/11/14 07:15:08;;;;;;;9.2;6.2;;;;;;;6.95;84.13086;936.9202;;;;
2022/11/14 07:17:33;;;;;;;8.3;5;;;;;;;7.58;83.19824;936.8056;;;;
2022/11/14 07:20:01;;;;;;;9.5;5.8;;;;;;;8.04;78.65625;936.8748;;;;
2022/11/14 07:22:28;;;;;;;10.6;4.9;;;;;;;8.45;78.76465;936.9171;;;;
2022/11/14 07:24:53;;;;;;;5.2;3.4;;;;;;;8.5;73.31836;936.8867;;;;
2022/11/14 07:27:21;;;;;;;6.1;4.1;;;;;;;8.66;73.00684;936.841;;;;
2022/11/14 07:30:02;;;;;;;7.1;5.5;;;;;;;9.14;72.32324;936.8407;;;;
2022/11/14 07:32:29;;;;;;;11.8;6.6;;;;;;;9.85;70.27734;936.767;;;;
2022/11/14 07:34:55;;;;;;;5.9;4.4;;;;;;;10.67;67.28223;936.8123;;;;
2022/11/14 07:37:20;;;;;;;6.2;5;;;;;;;11.02;66.75391;936.8031;;;;
2022/11/14 07:39:48;;;;;;;8.4;4.4;;;;;;;11.67;64.14258;936.7595;;;;
2022/11/14 07:42:13;;;;;;;6.7;4.2;;;;;;;12.25;62.11719;936.7584;;;;
2022/11/14 07:44:39;;;;;;;4.5;3;;;;;;;12.72;58.43164;936.7308;;;;
2022/11/14 07:47:04;;;;;;;4.7;3.1;;;;;;;13.14;57.06445;936.7216;;;;
2022/11/14 07:49:31;;;;;;;3.5;2.4;;;;;;;14.02;53.30078;936.7321;;;;
2022/11/14 07:51:56;;;;;;;4.4;2.2;;;;;;;14.72;51.29883;936.6887;;;;
2022/11/14 07:54:24;;;;;;;11.8;9.8;;;;;;;15.52;49.83594;936.6757;;;;
2022/11/14 07:56:49;;;;;;;15.9;12.3;;;;;;;16.19;48.31445;936.5555;;;;
2022/11/14 07:59:16;;;;;;;10.5;6.7;;;;;;;16.81;46.96973;936.6367;;;;
2022/11/14 08:01:42;;;;;;;20.7;11.6;;;;;;;16.43;48.53809;936.6191;;;;
2022/11/14 08:04:09;;;;;;;17;10.2;;;;;;;16.87;47.33594;936.698;;;;
2022/11/14 08:06:35;;;;;;;20.2;10.4;;;;;;;17.37;47.00684;936.5984;;;;
2022/11/14 08:09:00;;;;;;;15;8.3;;;;;;;16.99;47.9043;936.4826;;;;
2022/11/14 08:11:48;;;;;;;8.8;5.6;;;;;;;17.64;45.78223;936.4422;;;;
2022/11/14 08:13:50;;;;;;;6.3;4.3;;;;;;;18.27;45.08008;936.5112;;;;
2022/11/14 08:16:16;;;;;;;5.1;3.7;;;;;;;18.88;42.80469;936.516;;;;
2022/11/14 08:18:41;;;;;;;9.7;4.4;;;;;;;18.88;41.87402;936.4766;;;;
2022/11/14 08:21:08;;;;;;;5.2;3.1;;;;;;;18.97;41.9043;936.4905;;;;
2022/11/14 08:23:33;;;;;;;5.2;2.9;;;;;;;19.53;42.83301;936.4624;;;;
2022/11/14 08:26:01;;;;;;;4.2;2.8;;;;;;;20.24;40.75293;936.3405;;;;
2022/11/14 08:28:26;;;;;;;4.5;2.8;;;;;;;20.08;39.79297;936.367;;;;
2022/11/14 08:30:54;;;;;;;4.5;2.3;;;;;;;19.54;39.88379;936.3656;;;;
2022/11/14 08:33:18;;;;;;;7.8;2.8;;;;;;;17.87;42.78711;936.3817;;;;
2022/11/14 08:35:45;;;;;;;2.1;1.5;;;;;;;17.67;41.72266;936.3594;;;;
2022/11/14 08:38:10;;;;;;;4.3;2.3;;;;;;;17.83;44.12988;936.3912;;;;
2022/11/14 08:40:37;;;;;;;5.5;2.6;;;;;;;17.83;43.77051;936.3591;;;;
2022/11/14 08:43:04;;;;;;;4;2.2;;;;;;;17.31;44.06641;936.2858;;;;
2022/11/14 08:45:28;;;;;;;3.9;2;;;;;;;16.02;46.68945;936.3218;;;;
2022/11/14 08:47:54;;;;;;;3.2;1.7;;;;;;;15.49;47.83301;936.2573;;;;
2022/11/14 08:50:19;;;;;;;2;1.4;;;;;;;15.12;46.97363;936.2307;;;;
2022/11/14 08:52:44;;;;;;;2.1;1.3;;;;;;;14.18;46.96387;936.3523;;;;
2022/11/14 08:55:13;;;;;;;1.9;1.4;;;;;;;13.44;48.48242;936.3447;;;;
2022/11/14 08:57:38;;;;;;;3.4;1.6;;;;;;;13.21;50.80078;936.3467;;;;
2022/11/14 09:00:03;;;;;;;5.7;2.3;;;;;;;13.18;53.46191;936.3524;;;;
2022/11/14 09:02:28;;;;;;;2.4;1.3;;;;;;;13.15;52.10352;936.413;;;;
2022/11/14 09:04:55;;;;;;;2.5;1.3;;;;;;;13.12;51.73145;936.418;;;;
2022/11/14 09:07:20;;;;;;;4.5;1.4;;;;;;;13.1;50.99414;936.418;;;;
2022/11/14 09:09:45;;;;;;;2.1;1.4;;;;;;;12.97;54.6875;936.4325;;;;
2022/11/14 09:12:13;;;;;;;1.4;1.3;;;;;;;12.96;53.5957;936.4357;;;;
2022/11/14 09:14:38;;;;;;;3;1.3;;;;;;;12.95;55.05371;936.4773;;;;
2022/11/14 09:17:05;;;;;;;3.5;1.7;;;;;;;12.94;55.64844;936.367;;;;
2022/11/14 09:19:30;;;;;;;2.5;1.9;;;;;;;12.88;54.42285;936.4742;;;;
2022/11/14 09:21:55;;;;;;;2.8;2;;;;;;;12.83;56.65625;936.5359;;;;
2022/11/14 09:24:22;;;;;;;2.2;1.4;;;;;;;12.55;57.51367;936.5989;;;;
2022/11/14 09:26:48;;;;;;;1.7;1.4;;;;;;;12.57;59.19141;936.5916;;;;
2022/11/14 09:29:13;;;;;;;6.1;2.3;;;;;;;12.67;58.37988;936.6022;;;;
2022/11/14 09:31:38;;;;;;;4.6;2;;;;;;;12.82;57.30859;936.615;;;;
2022/11/14 09:34:05;;;;;;;2.5;1.7;;;;;;;12.91;57.48047;936.6443;;;;
2022/11/14 09:36:31;;;;;;;2.3;1.3;;;;;;;12.96;56.68359;936.5891;;;;
2022/11/14 09:38:56;;;;;;;1.9;1.4;;;;;;;13.02;56.60156;936.6252;;;;
2022/11/14 09:41:22;;;;;;;1.3;1.2;;;;;;;13.07;56.90625;936.5908;;;;
2022/11/14 09:43:47;;;;;;;2.4;1.3;;;;;;;13.14;53.87109;936.6536;;;;
2022/11/14 09:46:13;;;;;;;2.7;1.5;;;;;;;13.26;53.20801;936.6675;;;;
2022/11/14 09:48:39;;;;;;;2.1;1.9;;;;;;;13.35;53.32129;936.6479;;;;
2022/11/14 09:51:04;;;;;;;0.8;0.7;;;;;;;13.47;49.12988;936.6213;;;;
2022/11/14 09:53:29;;;;;;;1.4;1.1;;;;;;;13.71;51.02051;936.6085;;;;
2022/11/14 09:55:54;;;;;;;1.2;0.9;;;;;;;13.73;53.26563;936.5524;;;;
2022/11/14 09:58:21;;;;;;;1.6;1.2;;;;;;;13.74;53.86426;936.6283;;;;
2022/11/14 10:00:46;;;;;;;1.1;0.5;;;;;;;13.92;47.7998;936.5555;;;;
2022/11/14 10:03:11;;;;;;;0.5;0.3;;;;;;;14.19;45.61914;936.5019;;;;
2022/11/14 10:05:36;;;;;;;0.6;0.6;;;;;;;14.5;45.19043;936.6046;;;;
2022/11/14 10:08:01;;;;;;;1.1;0.7;;;;;;;14.72;46.32031;936.6284;;;;
2022/11/14 10:10:26;;;;;;;1.7;1;;;;;;;14.76;44.91699;936.6313;;;;
2022/11/14 10:12:51;;;;;;;1.1;0.8;;;;;;;14.9;45.61133;936.7289;;;;
2022/11/14 10:15:16;;;;;;;0.7;0.5;;;;;;;15.11;43.19922;936.7046;;;;
2022/11/14 10:17:42;;;;;;;0.6;0.6;;;;;;;15.26;41.4248;936.717;;;;
2022/11/14 10:20:07;;;;;;;1.3;1.1;;;;;;;15.44;42.54004;936.6703;;;;
2022/11/14 10:22:32;;;;;;;1.7;0.8;;;;;;;15.53;43.17188;936.6747;;;;
2022/11/14 10:24:57;;;;;;;0.4;0.4;;;;;;;15.63;41.10156;936.65;;;;
2022/11/14 10:27:22;;;;;;;0.6;0.4;;;;;;;15.56;40.89844;936.6777;;;;
2022/11/14 10:29:47;;;;;;;1.5;0.5;;;;;;;15.63;40.30469;936.6381;;;;
2022/11/14 10:32:13;;;;;;;0.6;0.6;;;;;;;15.74;40.41895;936.6519;;;;
2022/11/14 10:34:38;;;;;;;0.8;0.7;;;;;;;15.78;39.49805;936.6553;;;;
2022/11/14 10:37:03;;;;;;;1;0.4;;;;;;;15.85;39.77051;936.7198;;;;
2022/11/14 10:39:28;;;;;;;0.7;0.5;;;;;;;15.87;39.76074;936.6721;;;;
2022/11/14 10:41:53;;;;;;;2.1;0.8;;;;;;;15.73;47.47852;936.6464;;;;
2022/11/14 10:44:18;;;;;;;1.1;0.9;;;;;;;15.79;47.4502;936.7314;;;;
2022/11/14 10:46:44;;;;;;;1;0.8;;;;;;;15.65;43.93457;936.7614;;;;
2022/11/14 10:49:09;;;;;;;1;0.8;;;;;;;15.71;46.19336;936.8024;;;;
2022/11/14 10:51:34;;;;;;;3.8;0.8;;;;;;;15.65;47.72461;936.8449;;;;
2022/11/14 10:53:59;;;;;;;0.6;0.6;;;;;;;15.64;45.68945;936.8394;;;;
2022/11/14 10:56:26;;;;;;;0.9;0.6;;;;;;;15.71;42.87695;936.7342;;;;
2022/11/14 10:58:51;;;;;;;0.8;0.6;;;;;;;15.89;39.98145;936.769;;;;
2022/11/14 11:01:16;;;;;;;0.4;0.4;;;;;;;16.03;39.64844;936.8131;;;;
2022/11/14 11:03:44;;;;;;;0.5;0.5;;;;;;;16.31;38.71387;936.7958;;;;
2022/11/14 11:06:09;;;;;;;0.8;0.6;;;;;;;16.46;36.84082;936.736;;;;
2022/11/14 11:13:24;;;;;;;58;19.4;;;;;;;17.07;43.64844;936.6216;;;;
2022/11/14 11:15:50;;;;;;;0.8;0.5;;;;;;;17.07;36.86816;936.6722;;;;
2022/11/14 11:18:15;;;;;;;0.5;0.5;;;;;;;17.12;36.89551;936.6381;;;;
2022/11/14 11:20:40;;;;;;;0.4;0.4;;;;;;;17.23;35.65234;936.593;;;;
2022/11/14 11:23:05;;;;;;;0.4;0.4;;;;;;;17.26;35.55078;936.6287;;;;
2022/11/14 11:25:30;;;;;;;1.5;0.5;;;;;;;17.24;35.56055;936.6628;;;;
2022/11/14 11:27:57;;;;;;;0.5;0.5;;;;;;;17.6;33.97656;936.5948;;;;
2022/11/14 11:30:22;;;;;;;0.5;0.5;;;;;;;19.32;32.10547;936.5739;;;;
2022/11/14 11:32:47;;;;;;;1.4;0.5;;;;;;;22.01;28.48145;936.5947;;;;
2022/11/14 11:35:18;;;;;;;0.5;0.4;;;;;;;22.84;25.42188;936.5125;;;;
2022/11/14 11:37:45;;;;;;;1.5;0.3;;;;;;;25.02;23.85938;936.4424;;;;
2022/11/14 11:40:17;;;;;;;0.3;0.3;;;;;;;24.84;24.31055;936.4078;;;;
2022/11/14 11:42:42;;;;;;;0.5;0.5;;;;;;;25.55;24.05273;936.4111;;;;
2022/11/14 11:45:07;;;;;;;0.4;0.4;;;;;;;26.8;22.81738;936.4412;;;;
2022/11/14 11:47:32;;;;;;;0.4;0.4;;;;;;;27.59;22.79883;936.473;;;;
2022/11/14 11:49:59;;;;;;;0.6;0.5;;;;;;;28.22;20.5;936.4824;;;;
2022/11/14 11:52:23;;;;;;;0.6;0.5;;;;;;;26.73;21.9248;936.4448;;;;
2022/11/14 11:54:48;;;;;;;0.4;0.4;;;;;;;27.1;21.54004;936.4581;;;;
2022/11/14 11:57:14;;;;;;;2;0.6;;;;;;;28.29;20.05176;936.4055;;;;
2022/11/14 11:59:40;;;;;;;0.4;0.4;;;;;;;28.47;19.77441;936.4158;;;;
2022/11/14 12:02:05;;;;;;;0.4;0.4;;;;;;;28.21;19.83398;936.4125;;;;
2022/11/14 12:04:30;;;;;;;0.7;0.4;;;;;;;26.08;21.71582;936.4968;;;;
2022/11/14 12:06:55;;;;;;;1.5;0.5;;;;;;;26.15;21.68359;936.4021;;;;
2022/11/14 12:09:21;;;;;;;0.8;0.6;;;;;;;27.32;22.20313;936.4163;;;;
2022/11/14 12:11:46;;;;;;;1;0.8;;;;;;;28.73;20.19043;936.4091;;;;
2022/11/14 12:14:11;;;;;;;0.6;0.5;;;;;;;29.32;20.34766;936.3901;;;;
2022/11/14 12:16:38;;;;;;;0.3;0.3;;;;;;;28.45;20.57031;936.425;;;;
2022/11/14 12:19:03;;;;;;;0.3;0.3;;;;;;;29.23;19.53418;936.4612;;;;
2022/11/14 12:21:30;;;;;;;0.3;0.3;;;;;;;29.66;18.75391;936.4221;;;;
2022/11/14 12:23:56;;;;;;;0.4;0.4;;;;;;;29.9;18.31055;936.3823;;;;
2022/11/14 12:26:21;;;;;;;0.5;0.5;;;;;;;30.03;18.26758;936.4214;;;;
2022/11/14 12:28:46;;;;;;;0.4;0.4;;;;;;;29.24;19.09375;936.409;;;;
2022/11/14 12:31:11;;;;;;;0.3;0.3;;;;;;;28.09;19.62695;936.4548;;;;
2022/11/14 12:33:36;;;;;;;0.5;0.3;;;;;;;28.1;19.48535;936.4741;;;;
2022/11/14 12:36:01;;;;;;;0.2;0.2;;;;;;;28.42;18.92871;936.4725;;;;
2022/11/14 12:38:27;;;;;;;0.5;0.4;;;;;;;29.42;18.58887;936.4523;;;;
2022/11/14 12:40:55;;;;;;;0.3;0.3;;;;;;;29.99;18.01563;936.4677;;;;
2022/11/14 12:43:20;;;;;;;0.4;0.4;;;;;;;30.38;18.3418;936.6049;;;;
2022/11/14 12:45:45;;;;;;;1.3;0.9;;;;;;;30.07;23.38965;936.5953;;;;
2022/11/14 12:48:11;;;;;;;1.5;1;;;;;;;29.9;24.59668;936.5991;;;;
2022/11/14 12:50:36;;;;;;;1.9;1.3;;;;;;;29.63;26.25195;936.5019;;;;
2022/11/14 12:53:01;;;;;;;1.3;1.2;;;;;;;29.2;26.27441;936.5646;;;;
2022/11/14 12:55:26;;;;;;;1.6;1.5;;;;;;;27.2;29.2998;936.6314;;;;
2022/11/14 12:57:51;;;;;;;1.6;1.4;;;;;;;27.2;29.66699;936.6755;;;;
2022/11/14 13:00:16;;;;;;;1.4;1.3;;;;;;;27.33;29.01074;936.6505;;;;
2022/11/14 13:02:41;;;;;;;1.5;1.4;;;;;;;26.17;30.79492;936.7328;;;;
2022/11/14 13:05:06;;;;;;;2.5;1.3;;;;;;;27.02;29.60742;936.7249;;;;
2022/11/14 13:07:32;;;;;;;1.4;1.3;;;;;;;28.05;27.98926;936.793;;;;
2022/11/14 13:09:57;;;;;;;2.7;1.5;;;;;;;25.67;31.88281;936.8236;;;;
2022/11/14 13:22:04;;;;;;;1.4;1.3;;;;;;;27.77;28.375;936.8445;;;;
2022/11/14 13:24:32;;;;;;;2.4;1.5;;;;;;;27.56;28.48047;936.8399;;;;
2022/11/14 13:26:57;;;;;;;1.4;1.3;;;;;;;25.96;30.3418;936.8492;;;;
2022/11/14 13:29:22;;;;;;;1.8;1.4;;;;;;;24.63;32.64648;936.7866;;;;
2022/11/14 13:31:47;;;;;;;2;1.4;;;;;;;23.81;34.54004;936.858;;;;
2022/11/14 13:34:13;;;;;;;2.1;1.6;;;;;;;23.03;35.57129;936.835;;;;
2022/11/14 13:36:38;;;;;;;2;1.6;;;;;;;23.16;35.3584;936.8358;;;;
2022/11/14 13:39:04;;;;;;;2.1;1.5;;;;;;;22.84;35.9082;936.843;;;;
2022/11/14 13:41:29;;;;;;;1.7;1.5;;;;;;;21.76;37.77734;936.9775;;;;
2022/11/14 13:43:55;;;;;;;1.7;1.5;;;;;;;21.71;38.46387;936.9501;;;;
2022/11/14 13:46:21;;;;;;;1.8;1.6;;;;;;;23.15;35.69727;936.9528;;;;
2022/11/14 13:48:46;;;;;;;2.7;2.1;;;;;;;22.16;37.2959;936.9149;;;;
2022/11/14 13:51:13;;;;;;;2;1.8;;;;;;;21.09;39.73242;937.0044;;;;
2022/11/14 13:53:38;;;;;;;2.3;1.8;;;;;;;20.74;39.67676;936.9705;;;;
2022/11/14 13:56:03;;;;;;;2.5;1.9;;;;;;;19.83;41.8125;937.01;;;;
2022/11/14 13:58:28;;;;;;;4.3;3.2;;;;;;;19.01;43.37598;937.0276;;;;
2022/11/14 14:00:55;;;;;;;4.2;1.9;;;;;;;18.12;45.56543;937.0895;;;;
2022/11/14 14:03:21;;;;;;;2.7;1.6;;;;;;;17.59;46.77441;937.0276;;;;
2022/11/14 14:05:46;;;;;;;3.9;1.7;;;;;;;17;48.9375;937.1106;;;;
2022/11/14 14:08:11;;;;;;;1.8;1.7;;;;;;;16.65;50.21777;937.0757;;;;
2022/11/14 14:10:36;;;;;;;2.1;1.9;;;;;;;16.49;50.75586;937.0658;;;;
2022/11/14 14:13:01;;;;;;;2.3;2;;;;;;;16.26;51.82813;937.0842;;;;
2022/11/14 14:15:34;;;;;;;2.6;2;;;;;;;16.11;52.55078;937.0667;;;;
2022/11/14 14:17:59;;;;;;;2.3;2.1;;;;;;;15.96;52.82129;937.017;;;;
2022/11/14 14:20:24;;;;;;;2.8;2.3;;;;;;;15.81;53.63574;937.1423;;;;
2022/11/14 14:22:50;;;;;;;3.6;2.8;;;;;;;15.78;53.90918;937.1628;;;;
2022/11/14 14:25:14;;;;;;;3;2.6;;;;;;;15.64;54.31934;937.15;;;;
2022/11/14 14:27:39;;;;;;;4.2;2.5;;;;;;;15.64;56.7793;937.1661;;;;
2022/11/14 14:30:04;;;;;;;5.9;2.5;;;;;;;15.58;55.8584;937.2015;;;;
2022/11/14 14:32:33;;;;;;;3.8;2.2;;;;;;;15.62;56.02734;937.2128;;;;
2022/11/14 14:35:03;;;;;;;3;2.3;;;;;;;15.65;55.93848;937.2317;;;;
2022/11/14 14:37:28;;;;;;;3.3;2.4;;;;;;;15.53;56.43164;937.2798;;;;
2022/11/14 14:39:54;;;;;;;2.4;2.2;;;;;;;15.34;56.72949;937.2368;;;;
2022/11/14 14:42:20;;;;;;;2.3;2.1;;;;;;;15.14;56.93555;937.1816;;;;
2022/11/14 14:44:47;;;;;;;4.3;3;;;;;;;14.92;57.44629;937.2491;;;;
2022/11/14 14:47:11;;;;;;;4.4;2.3;;;;;;;14.99;57.44629;937.2084;;;;
2022/11/14 14:49:36;;;;;;;11.1;5.9;;;;;;;14.91;57.83887;937.1842;;;;
2022/11/14 14:52:04;;;;;;;3.9;3.2;;;;;;;14.68;57.94727;937.274;;;;
2022/11/14 14:54:32;;;;;;;8.3;4.8;;;;;;;14.43;58.9043;937.3036;;;;
2022/11/14 14:56:58;;;;;;;5.3;3.1;;;;;;;14.38;59.11621;937.337;;;;
2022/11/14 14:59:22;;;;;;;3.1;2.3;;;;;;;14.3;59.66895;937.3608;;;;
2022/11/14 15:01:49;;;;;;;4.6;2;;;;;;;14.22;59.3125;937.3917;;;;
2022/11/14 15:04:14;;;;;;;2.5;2.3;;;;;;;14.11;59.32227;937.372;;;;
2022/11/14 15:06:39;;;;;;;3;2.3;;;;;;;14;60.07715;937.3828;;;;
2022/11/14 15:09:04;;;;;;;3.7;2.3;;;;;;;14.04;60.47461;937.4349;;;;
2022/11/14 15:11:29;;;;;;;2.3;2.1;;;;;;;14.05;60.3252;937.3748;;;;
2022/11/14 15:13:56;;;;;;;3.9;2.2;;;;;;;13.92;60.60742;937.4305;;;;
2022/11/14 15:16:22;;;;;;;6.7;2.4;;;;;;;13.86;61.33496;937.3747;;;;
2022/11/14 15:18:48;;;;;;;3.4;2.4;;;;;;;13.65;61.53711;937.4225;;;;
2022/11/14 15:21:13;;;;;;;3.1;2.4;;;;;;;13.57;61.67383;937.4153;;;;
2022/11/14 15:23:39;;;;;;;4.3;3.1;;;;;;;13.33;63.2373;937.443;;;;
2022/11/14 15:26:04;;;;;;;3.4;2.6;;;;;;;13.06;63.85254;937.4749;;;;
2022/11/14 15:28:29;;;;;;;7.7;5.5;;;;;;;13.1;64.1123;937.5164;;;;
2022/11/14 15:30:57;;;;;;;5.4;3.8;;;;;;;13.16;63.77539;937.5363;;;;
2022/11/14 15:33:22;;;;;;;3.7;3.2;;;;;;;13.22;63.54297;937.5072;;;;
2022/11/14 15:35:47;;;;;;;6.6;3.5;;;;;;;13.21;63.27637;937.5628;;;;
2022/11/14 15:38:13;;;;;;;7.8;6.7;;;;;;;13.19;64.16895;937.6005;;;;
2022/11/14 15:40:41;;;;;;;10.6;8.5;;;;;;;13.21;62.83984;937.5804;;;;
2022/11/14 15:43:06;;;;;;;10.6;7.6;;;;;;;13.13;63.02441;937.5739;;;;
2022/11/14 15:45:31;;;;;;;4.8;4;;;;;;;13.04;63.11523;937.6188;;;;
2022/11/14 15:47:56;;;;;;;4.3;3.6;;;;;;;12.95;63.75684;937.561;;;;
2022/11/14 15:50:21;;;;;;;4.3;2.5;;;;;;;12.96;63.92969;937.6161;;;;
2022/11/14 15:52:47;;;;;;;4.1;3;;;;;;;12.94;63.90332;937.5994;;;;
2022/11/14 15:55:12;;;;;;;5.5;3.3;;;;;;;12.91;63.69238;937.5898;;;;
2022/11/14 15:57:41;;;;;;;6.8;4.2;;;;;;;12.94;63.65137;937.5818;;;;
2022/11/14 16:00:16;;;;;;;6.1;3.8;;;;;;;12.99;63.48633;937.6017;;;;
2022/11/14 16:02:44;;;;;;;3.5;2.9;;;;;;;13.01;63.38672;937.5797;;;;
2022/11/14 16:05:08;;;;;;;2.9;2.4;;;;;;;13.04;63.42383;937.6476;;;;